sensor_id;sensor_type;location;lat;lon;timestamp;P1;durP1;ratioP1;P2;durP2;ratioP2
24635;SDS011;12772;49.794;10.024;2022-11-02T00:01:43;4.10;;;2.17;;
24635;SDS011;12772;49.794;10.024;2022-11-02T00:05:45;3.63;;;2.10;;
24635;SDS011;12772;49.794;10.024;2022-11-02T00:09:47;6.22;;;2.00;;
24635;SDS011;12772;49.794;10.024;2022-11-02T00:13:49;4.75;;;2.33;;
24635;SDS011;12772;49.794;10.024;2022-11-02T00:17:52;3.22;;;2.08;;
24635;SDS011;12772;49.794;10.024;2022-11-02T00:21:58;2.88;;;2.00;;
24635;SDS011;12772;49.794;10.024;2022-11-02T00:26:07;3.60;;;2.10;;
24635;SDS011;12772;49.794;10.024;2022-11-02T00:30:09;2.47;;;2.17;;
24635;SDS011;12772;49.794;10.024;2022-11-02T00:34:11;3.70;;;1.88;;
24635;SDS011;12772;49.794;10.024;2022-11-02T00:38:13;7.60;;;1.88;;
24635;SDS011;12772;49.794;10.024;2022-11-02T00:42:15;5.50;;;2.15;;
24635;SDS011;12772;49.794;10.024;2022-11-02T00:46:17;5.05;;;2.33;;
24635;SDS011;12772;49.794;10.024;2022-11-02T00:50:20;5.53;;;2.15;;
24635;SDS011;12772;49.794;10.024;2022-11-02T00:54:22;4.75;;;2.33;;
24635;SDS011;12772;49.794;10.024;2022-11-02T00:58:24;4.53;;;2.17;;
24635;SDS011;12772;49.794;10.024;2022-11-02T01:02:26;3.70;;;1.80;;
24635;SDS011;12772;49.794;10.024;2022-11-02T01:06:28;2.55;;;1.92;;
24635;SDS011;12772;49.794;10.024;2022-11-02T01:10:30;6.55;;;2.10;;
24635;SDS011;12772;49.794;10.024;2022-11-02T01:14:32;8.77;;;2.72;;
24635;SDS011;12772;49.794;10.024;2022-11-02T01:18:35;4.28;;;2.22;;
24635;SDS011;12772;49.794;10.024;2022-11-02T01:22:37;3.58;;;1.83;;
24635;SDS011;12772;49.794;10.024;2022-11-02T01:26:39;3.13;;;1.83;;
24635;SDS011;12772;49.794;10.024;2022-11-02T01:30:41;8.07;;;2.30;;
24635;SDS011;12772;49.794;10.024;2022-11-02T01:34:43;5.32;;;2.13;;
24635;SDS011;12772;49.794;10.024;2022-11-02T01:38:45;2.25;;;1.75;;
24635;SDS011;12772;49.794;10.024;2022-11-02T01:42:48;4.32;;;2.13;;
24635;SDS011;12772;49.794;10.024;2022-11-02T01:46:50;3.83;;;2.10;;
24635;SDS011;12772;49.794;10.024;2022-11-02T01:50:55;6.97;;;2.65;;
24635;SDS011;12772;49.794;10.024;2022-11-02T01:55:00;7.32;;;1.95;;
24635;SDS011;12772;49.794;10.024;2022-11-02T01:59:26;7.45;;;2.20;;
24635;SDS011;12772;49.794;10.024;2022-11-02T02:03:32;2.88;;;1.77;;
24635;SDS011;12772;49.794;10.024;2022-11-02T02:07:37;3.45;;;1.70;;
24635;SDS011;12772;49.794;10.024;2022-11-02T02:11:40;6.28;;;1.83;;
24635;SDS011;12772;49.794;10.024;2022-11-02T02:28:47;3.17;;;1.90;;
24635;SDS011;12772;49.794;10.024;2022-11-02T02:33:04;7.68;;;2.35;;
24635;SDS011;12772;49.794;10.024;2022-11-02T02:41:40;4.10;;;2.40;;
24635;SDS011;12772;49.794;10.024;2022-11-02T02:50:04;7.60;;;2.20;;
24635;SDS011;12772;49.794;10.024;2022-11-02T02:54:18;7.35;;;2.22;;
24635;SDS011;12772;49.794;10.024;2022-11-02T02:58:24;6.30;;;1.90;;
24635;SDS011;12772;49.794;10.024;2022-11-02T03:02:36;7.63;;;2.40;;
24635;SDS011;12772;49.794;10.024;2022-11-02T03:06:43;6.18;;;2.10;;
24635;SDS011;12772;49.794;10.024;2022-11-02T03:10:56;5.32;;;1.88;;
24635;SDS011;12772;49.794;10.024;2022-11-02T03:15:09;6.47;;;1.98;;
24635;SDS011;12772;49.794;10.024;2022-11-02T03:19:21;2.92;;;2.08;;
24635;SDS011;12772;49.794;10.024;2022-11-02T03:23:37;8.35;;;1.90;;
24635;SDS011;12772;49.794;10.024;2022-11-02T03:27:50;6.57;;;1.90;;
24635;SDS011;12772;49.794;10.024;2022-11-02T03:32:15;2.95;;;1.83;;
24635;SDS011;12772;49.794;10.024;2022-11-02T03:36:57;5.65;;;2.05;;
24635;SDS011;12772;49.794;10.024;2022-11-02T03:41:15;8.00;;;2.38;;
24635;SDS011;12772;49.794;10.024;2022-11-02T03:45:21;3.28;;;1.70;;
24635;SDS011;12772;49.794;10.024;2022-11-02T03:49:25;5.13;;;2.05;;
24635;SDS011;12772;49.794;10.024;2022-11-02T03:53:50;6.80;;;1.98;;
24635;SDS011;12772;49.794;10.024;2022-11-02T03:57:58;4.70;;;2.28;;
24635;SDS011;12772;49.794;10.024;2022-11-02T04:02:00;3.78;;;1.85;;
24635;SDS011;12772;49.794;10.024;2022-11-02T04:06:03;3.42;;;1.80;;
24635;SDS011;12772;49.794;10.024;2022-11-02T04:10:05;4.25;;;2.03;;
24635;SDS011;12772;49.794;10.024;2022-11-02T04:14:07;6.13;;;2.25;;
24635;SDS011;12772;49.794;10.024;2022-11-02T04:18:26;5.07;;;2.20;;
24635;SDS011;12772;49.794;10.024;2022-11-02T04:22:46;3.72;;;1.77;;
24635;SDS011;12772;49.794;10.024;2022-11-02T04:27:06;4.57;;;2.17;;
24635;SDS011;12772;49.794;10.024;2022-11-02T04:31:08;3.33;;;2.00;;
24635;SDS011;12772;49.794;10.024;2022-11-02T04:35:12;2.65;;;1.65;;
24635;SDS011;12772;49.794;10.024;2022-11-02T04:39:14;4.88;;;2.33;;
24635;SDS011;12772;49.794;10.024;2022-11-02T04:43:16;5.65;;;2.35;;
24635;SDS011;12772;49.794;10.024;2022-11-02T04:47:18;3.88;;;1.80;;
24635;SDS011;12772;49.794;10.024;2022-11-02T04:51:21;4.00;;;2.25;;
24635;SDS011;12772;49.794;10.024;2022-11-02T04:55:24;5.00;;;1.92;;
24635;SDS011;12772;49.794;10.024;2022-11-02T04:59:27;5.45;;;2.05;;
24635;SDS011;12772;49.794;10.024;2022-11-02T05:03:30;6.70;;;1.65;;
24635;SDS011;12772;49.794;10.024;2022-11-02T05:07:32;5.68;;;1.90;;
24635;SDS011;12772;49.794;10.024;2022-11-02T05:11:34;4.40;;;1.98;;
24635;SDS011;12772;49.794;10.024;2022-11-02T05:15:39;6.22;;;2.10;;
24635;SDS011;12772;49.794;10.024;2022-11-02T05:19:41;5.60;;;2.15;;
24635;SDS011;12772;49.794;10.024;2022-11-02T05:23:43;15.32;;;2.25;;
24635;SDS011;12772;49.794;10.024;2022-11-02T05:27:45;4.70;;;1.90;;
24635;SDS011;12772;49.794;10.024;2022-11-02T05:31:47;2.92;;;1.90;;
24635;SDS011;12772;49.794;10.024;2022-11-02T05:35:49;4.30;;;1.70;;
24635;SDS011;12772;49.794;10.024;2022-11-02T05:39:51;5.18;;;1.95;;
24635;SDS011;12772;49.794;10.024;2022-11-02T05:43:53;4.00;;;1.67;;
24635;SDS011;12772;49.794;10.024;2022-11-02T05:47:56;4.40;;;1.50;;
24635;SDS011;12772;49.794;10.024;2022-11-02T05:52:00;5.43;;;1.90;;
24635;SDS011;12772;49.794;10.024;2022-11-02T05:56:03;4.93;;;1.95;;
24635;SDS011;12772;49.794;10.024;2022-11-02T06:00:07;5.63;;;2.10;;
24635;SDS011;12772;49.794;10.024;2022-11-02T06:04:11;4.10;;;2.20;;
24635;SDS011;12772;49.794;10.024;2022-11-02T06:08:13;3.47;;;1.63;;
24635;SDS011;12772;49.794;10.024;2022-11-02T06:12:15;6.50;;;2.28;;
24635;SDS011;12772;49.794;10.024;2022-11-02T06:16:17;3.47;;;1.90;;
24635;SDS011;12772;49.794;10.024;2022-11-02T06:20:19;5.05;;;2.03;;
24635;SDS011;12772;49.794;10.024;2022-11-02T06:24:22;7.82;;;2.00;;
24635;SDS011;12772;49.794;10.024;2022-11-02T06:28:24;3.33;;;1.75;;
24635;SDS011;12772;49.794;10.024;2022-11-02T06:32:26;4.85;;;1.80;;
24635;SDS011;12772;49.794;10.024;2022-11-02T06:36:28;4.85;;;2.28;;
24635;SDS011;12772;49.794;10.024;2022-11-02T06:40:30;7.75;;;2.30;;
24635;SDS011;12772;49.794;10.024;2022-11-02T06:44:32;4.22;;;2.05;;
24635;SDS011;12772;49.794;10.024;2022-11-02T06:48:34;7.22;;;2.05;;
24635;SDS011;12772;49.794;10.024;2022-11-02T06:52:41;7.50;;;2.47;;
24635;SDS011;12772;49.794;10.024;2022-11-02T06:56:44;4.22;;;2.00;;
24635;SDS011;12772;49.794;10.024;2022-11-02T07:00:46;6.43;;;2.83;;
24635;SDS011;12772;49.794;10.024;2022-11-02T07:04:48;9.25;;;2.72;;
24635;SDS011;12772;49.794;10.024;2022-11-02T07:08:50;5.85;;;1.88;;
24635;SDS011;12772;49.794;10.024;2022-11-02T07:12:52;6.03;;;2.25;;
24635;SDS011;12772;49.794;10.024;2022-11-02T07:16:55;4.85;;;2.17;;
24635;SDS011;12772;49.794;10.024;2022-11-02T07:20:58;6.15;;;2.40;;
24635;SDS011;12772;49.794;10.024;2022-11-02T07:25:01;4.07;;;2.35;;
24635;SDS011;12772;49.794;10.024;2022-11-02T07:29:03;3.92;;;2.25;;
24635;SDS011;12772;49.794;10.024;2022-11-02T07:33:05;7.28;;;2.50;;
24635;SDS011;12772;49.794;10.024;2022-11-02T07:37:07;9.82;;;3.05;;
24635;SDS011;12772;49.794;10.024;2022-11-02T07:41:09;4.72;;;2.53;;
24635;SDS011;12772;49.794;10.024;2022-11-02T07:45:11;8.82;;;2.33;;
24635;SDS011;12772;49.794;10.024;2022-11-02T07:49:13;6.70;;;1.98;;
24635;SDS011;12772;49.794;10.024;2022-11-02T07:53:15;8.93;;;2.25;;
24635;SDS011;12772;49.794;10.024;2022-11-02T07:57:17;4.13;;;1.92;;
24635;SDS011;12772;49.794;10.024;2022-11-02T08:01:20;4.45;;;2.33;;
24635;SDS011;12772;49.794;10.024;2022-11-02T08:05:22;5.80;;;2.53;;
24635;SDS011;12772;49.794;10.024;2022-11-02T08:09:25;4.25;;;2.30;;
24635;SDS011;12772;49.794;10.024;2022-11-02T08:13:27;5.32;;;2.30;;
24635;SDS011;12772;49.794;10.024;2022-11-02T08:17:29;7.05;;;3.15;;
24635;SDS011;12772;49.794;10.024;2022-11-02T08:21:31;7.25;;;2.38;;
24635;SDS011;12772;49.794;10.024;2022-11-02T08:25:33;5.32;;;2.60;;
24635;SDS011;12772;49.794;10.024;2022-11-02T08:29:35;5.40;;;2.65;;
24635;SDS011;12772;49.794;10.024;2022-11-02T08:33:37;6.43;;;2.30;;
24635;SDS011;12772;49.794;10.024;2022-11-02T08:37:39;5.60;;;2.50;;
24635;SDS011;12772;49.794;10.024;2022-11-02T08:41:41;5.82;;;2.13;;
24635;SDS011;12772;49.794;10.024;2022-11-02T08:45:43;7.55;;;2.40;;
24635;SDS011;12772;49.794;10.024;2022-11-02T08:49:47;5.53;;;2.20;;
24635;SDS011;12772;49.794;10.024;2022-11-02T08:53:51;3.55;;;2.00;;
24635;SDS011;12772;49.794;10.024;2022-11-02T08:57:53;5.60;;;2.55;;
24635;SDS011;12772;49.794;10.024;2022-11-02T09:01:56;8.57;;;2.25;;
24635;SDS011;12772;49.794;10.024;2022-11-02T09:05:59;3.65;;;1.92;;
24635;SDS011;12772;49.794;10.024;2022-11-02T09:10:02;4.60;;;1.80;;
24635;SDS011;12772;49.794;10.024;2022-11-02T09:14:05;7.95;;;2.38;;
24635;SDS011;12772;49.794;10.024;2022-11-02T09:18:07;7.40;;;2.70;;
24635;SDS011;12772;49.794;10.024;2022-11-02T09:22:10;6.47;;;3.45;;
24635;SDS011;12772;49.794;10.024;2022-11-02T09:26:12;5.00;;;1.90;;
24635;SDS011;12772;49.794;10.024;2022-11-02T09:30:14;6.78;;;2.42;;
24635;SDS011;12772;49.794;10.024;2022-11-02T09:34:16;6.15;;;2.20;;
24635;SDS011;12772;49.794;10.024;2022-11-02T09:38:21;6.13;;;2.17;;
24635;SDS011;12772;49.794;10.024;2022-11-02T09:42:31;5.53;;;2.35;;
24635;SDS011;12772;49.794;10.024;2022-11-02T09:46:44;7.57;;;2.08;;
24635;SDS011;12772;49.794;10.024;2022-11-02T09:50:55;5.07;;;1.95;;
24635;SDS011;12772;49.794;10.024;2022-11-02T09:55:11;8.57;;;2.30;;
24635;SDS011;12772;49.794;10.024;2022-11-02T09:59:20;7.55;;;2.35;;
24635;SDS011;12772;49.794;10.024;2022-11-02T10:03:42;4.35;;;2.10;;
24635;SDS011;12772;49.794;10.024;2022-11-02T10:08:02;5.30;;;2.03;;
24635;SDS011;12772;49.794;10.024;2022-11-02T10:12:29;5.20;;;1.88;;
24635;SDS011;12772;49.794;10.024;2022-11-02T10:16:54;6.65;;;1.90;;
24635;SDS011;12772;49.794;10.024;2022-11-02T10:21:05;7.15;;;1.83;;
24635;SDS011;12772;49.794;10.024;2022-11-02T10:25:21;6.15;;;2.10;;
24635;SDS011;12772;49.794;10.024;2022-11-02T10:33:52;4.50;;;1.80;;
24635;SDS011;12772;49.794;10.024;2022-11-02T10:38:07;4.82;;;2.42;;
24635;SDS011;12772;49.794;10.024;2022-11-02T10:42:29;5.28;;;1.90;;
24635;SDS011;12772;49.794;10.024;2022-11-02T10:51:02;9.88;;;2.42;;
24635;SDS011;12772;49.794;10.024;2022-11-02T10:59:37;6.15;;;2.75;;
24635;SDS011;12772;49.794;10.024;2022-11-02T11:03:56;5.88;;;2.38;;
24635;SDS011;12772;49.794;10.024;2022-11-02T11:07:59;5.68;;;2.03;;
24635;SDS011;12772;49.794;10.024;2022-11-02T11:12:03;8.18;;;2.47;;
24635;SDS011;12772;49.794;10.024;2022-11-02T11:16:31;4.43;;;2.08;;
24635;SDS011;12772;49.794;10.024;2022-11-02T11:20:37;7.05;;;2.10;;
24635;SDS011;12772;49.794;10.024;2022-11-02T11:24:40;4.57;;;2.10;;
24635;SDS011;12772;49.794;10.024;2022-11-02T11:28:51;3.40;;;1.80;;
24635;SDS011;12772;49.794;10.024;2022-11-02T11:32:55;4.63;;;2.42;;
24635;SDS011;12772;49.794;10.024;2022-11-02T11:37:07;4.35;;;1.98;;
24635;SDS011;12772;49.794;10.024;2022-11-02T11:41:10;4.45;;;1.80;;
24635;SDS011;12772;49.794;10.024;2022-11-02T11:45:16;4.53;;;1.83;;
24635;SDS011;12772;49.794;10.024;2022-11-02T11:49:23;7.85;;;2.03;;
24635;SDS011;12772;49.794;10.024;2022-11-02T11:53:28;7.03;;;2.67;;
24635;SDS011;12772;49.794;10.024;2022-11-02T11:57:31;6.43;;;2.17;;
24635;SDS011;12772;49.794;10.024;2022-11-02T12:01:37;4.20;;;1.70;;
24635;SDS011;12772;49.794;10.024;2022-11-02T12:10:22;3.35;;;1.80;;
24635;SDS011;12772;49.794;10.024;2022-11-02T12:19:01;4.85;;;2.17;;
24635;SDS011;12772;49.794;10.024;2022-11-02T12:45:53;6.78;;;2.38;;
24635;SDS011;12772;49.794;10.024;2022-11-02T12:54:27;3.55;;;1.70;;
24635;SDS011;12772;49.794;10.024;2022-11-02T12:58:36;5.93;;;2.20;;
24635;SDS011;12772;49.794;10.024;2022-11-02T13:02:50;3.53;;;1.90;;
24635;SDS011;12772;49.794;10.024;2022-11-02T13:07:00;5.05;;;1.98;;
24635;SDS011;12772;49.794;10.024;2022-11-02T13:11:07;3.90;;;1.92;;
24635;SDS011;12772;49.794;10.024;2022-11-02T13:15:16;5.13;;;2.30;;
24635;SDS011;12772;49.794;10.024;2022-11-02T13:19:40;5.57;;;2.30;;
24635;SDS011;12772;49.794;10.024;2022-11-02T13:23:48;5.00;;;2.00;;
24635;SDS011;12772;49.794;10.024;2022-11-02T13:27:55;6.45;;;2.25;;
24635;SDS011;12772;49.794;10.024;2022-11-02T13:32:02;4.40;;;1.67;;
24635;SDS011;12772;49.794;10.024;2022-11-02T13:36:24;6.70;;;2.08;;
24635;SDS011;12772;49.794;10.024;2022-11-02T13:40:31;5.70;;;2.05;;
24635;SDS011;12772;49.794;10.024;2022-11-02T13:49:11;3.75;;;1.83;;
24635;SDS011;12772;49.794;10.024;2022-11-02T13:53:21;5.75;;;1.95;;
24635;SDS011;12772;49.794;10.024;2022-11-02T13:57:37;3.33;;;1.58;;
24635;SDS011;12772;49.794;10.024;2022-11-02T14:01:43;4.88;;;2.08;;
24635;SDS011;12772;49.794;10.024;2022-11-02T14:05:46;3.88;;;2.20;;
24635;SDS011;12772;49.794;10.024;2022-11-02T14:14:21;6.72;;;2.17;;
24635;SDS011;12772;49.794;10.024;2022-11-02T14:18:25;4.60;;;1.95;;
24635;SDS011;12772;49.794;10.024;2022-11-02T14:22:30;4.70;;;1.90;;
24635;SDS011;12772;49.794;10.024;2022-11-02T14:26:32;6.65;;;2.17;;
24635;SDS011;12772;49.794;10.024;2022-11-02T14:39:30;3.70;;;1.50;;
24635;SDS011;12772;49.794;10.024;2022-11-02T14:43:48;3.72;;;1.90;;
24635;SDS011;12772;49.794;10.024;2022-11-02T14:47:58;6.45;;;2.10;;
24635;SDS011;12772;49.794;10.024;2022-11-02T14:52:06;6.60;;;2.10;;
24635;SDS011;12772;49.794;10.024;2022-11-02T14:56:14;8.65;;;2.67;;
24635;SDS011;12772;49.794;10.024;2022-11-02T15:00:21;4.65;;;1.63;;
24635;SDS011;12772;49.794;10.024;2022-11-02T15:04:25;5.50;;;2.03;;
24635;SDS011;12772;49.794;10.024;2022-11-02T15:08:29;4.22;;;1.98;;
24635;SDS011;12772;49.794;10.024;2022-11-02T15:12:35;5.57;;;1.85;;
24635;SDS011;12772;49.794;10.024;2022-11-02T15:16:40;3.22;;;1.80;;
24635;SDS011;12772;49.794;10.024;2022-11-02T15:20:42;6.82;;;4.32;;
24635;SDS011;12772;49.794;10.024;2022-11-02T15:24:44;5.30;;;3.20;;
24635;SDS011;12772;49.794;10.024;2022-11-02T15:28:48;7.07;;;2.90;;
24635;SDS011;12772;49.794;10.024;2022-11-02T15:32:52;6.68;;;2.67;;
24635;SDS011;12772;49.794;10.024;2022-11-02T15:37:00;6.78;;;3.00;;
24635;SDS011;12772;49.794;10.024;2022-11-02T15:41:05;4.35;;;2.78;;
24635;SDS011;12772;49.794;10.024;2022-11-02T15:49:56;6.95;;;3.42;;
24635;SDS011;12772;49.794;10.024;2022-11-02T15:54:09;6.45;;;2.92;;
24635;SDS011;12772;49.794;10.024;2022-11-02T16:02:45;10.05;;;4.78;;
24635;SDS011;12772;49.794;10.024;2022-11-02T16:06:49;5.78;;;4.13;;
24635;SDS011;12772;49.794;10.024;2022-11-02T16:11:01;9.13;;;4.07;;
24635;SDS011;12772;49.794;10.024;2022-11-02T16:15:12;11.07;;;6.70;;
24635;SDS011;12772;49.794;10.024;2022-11-02T16:19:18;13.30;;;6.35;;
24635;SDS011;12772;49.794;10.024;2022-11-02T16:23:22;10.80;;;6.00;;
24635;SDS011;12772;49.794;10.024;2022-11-02T16:27:27;8.32;;;5.32;;
24635;SDS011;12772;49.794;10.024;2022-11-02T16:31:29;11.23;;;6.68;;
24635;SDS011;12772;49.794;10.024;2022-11-02T16:35:31;9.50;;;6.72;;
24635;SDS011;12772;49.794;10.024;2022-11-02T16:39:34;13.75;;;6.82;;
24635;SDS011;12772;49.794;10.024;2022-11-02T16:43:40;8.88;;;5.35;;
24635;SDS011;12772;49.794;10.024;2022-11-02T16:47:44;9.23;;;4.45;;
24635;SDS011;12772;49.794;10.024;2022-11-02T16:51:48;9.10;;;5.53;;
24635;SDS011;12772;49.794;10.024;2022-11-02T16:56:13;10.50;;;4.68;;
24635;SDS011;12772;49.794;10.024;2022-11-02T17:00:33;7.97;;;3.55;;
24635;SDS011;12772;49.794;10.024;2022-11-02T17:04:37;8.27;;;3.60;;
24635;SDS011;12772;49.794;10.024;2022-11-02T17:08:42;6.60;;;3.30;;
24635;SDS011;12772;49.794;10.024;2022-11-02T17:12:50;7.05;;;2.80;;
24635;SDS011;12772;49.794;10.024;2022-11-02T17:25:18;7.03;;;3.78;;
24635;SDS011;12772;49.794;10.024;2022-11-02T17:33:27;3.70;;;2.90;;
24635;SDS011;12772;49.794;10.024;2022-11-02T17:37:32;10.88;;;4.78;;
24635;SDS011;12772;49.794;10.024;2022-11-02T17:41:38;7.93;;;4.13;;
24635;SDS011;12772;49.794;10.024;2022-11-02T17:45:58;5.90;;;3.22;;
24635;SDS011;12772;49.794;10.024;2022-11-02T17:50:01;7.57;;;3.22;;
24635;SDS011;12772;49.794;10.024;2022-11-02T17:54:03;7.07;;;2.83;;
24635;SDS011;12772;49.794;10.024;2022-11-02T17:58:05;6.22;;;2.92;;
24635;SDS011;12772;49.794;10.024;2022-11-02T18:02:11;5.70;;;2.70;;
24635;SDS011;12772;49.794;10.024;2022-11-02T18:06:14;2.65;;;2.30;;
24635;SDS011;12772;49.794;10.024;2022-11-02T18:10:16;7.00;;;3.00;;
24635;SDS011;12772;49.794;10.024;2022-11-02T18:14:19;7.18;;;2.63;;
24635;SDS011;12772;49.794;10.024;2022-11-02T18:18:21;7.35;;;3.25;;
24635;SDS011;12772;49.794;10.024;2022-11-02T18:22:23;7.72;;;2.70;;
24635;SDS011;12772;49.794;10.024;2022-11-02T18:26:25;7.32;;;2.90;;
24635;SDS011;12772;49.794;10.024;2022-11-02T18:30:28;14.50;;;6.47;;
24635;SDS011;12772;49.794;10.024;2022-11-02T18:34:31;10.77;;;6.38;;
24635;SDS011;12772;49.794;10.024;2022-11-02T18:38:34;11.07;;;5.55;;
24635;SDS011;12772;49.794;10.024;2022-11-02T18:42:37;7.32;;;5.05;;
24635;SDS011;12772;49.794;10.024;2022-11-02T18:46:40;6.80;;;4.05;;
24635;SDS011;12772;49.794;10.024;2022-11-02T18:50:42;9.52;;;5.47;;
24635;SDS011;12772;49.794;10.024;2022-11-02T18:54:44;10.60;;;5.20;;
24635;SDS011;12772;49.794;10.024;2022-11-02T18:58:47;9.55;;;6.60;;
24635;SDS011;12772;49.794;10.024;2022-11-02T19:02:50;12.02;;;7.90;;
24635;SDS011;12772;49.794;10.024;2022-11-02T19:06:52;14.40;;;9.32;;
24635;SDS011;12772;49.794;10.024;2022-11-02T19:11:12;13.05;;;8.55;;
24635;SDS011;12772;49.794;10.024;2022-11-02T19:15:14;11.60;;;8.13;;
24635;SDS011;12772;49.794;10.024;2022-11-02T19:19:16;13.02;;;7.65;;
24635;SDS011;12772;49.794;10.024;2022-11-02T19:23:18;8.35;;;6.18;;
24635;SDS011;12772;49.794;10.024;2022-11-02T19:27:21;10.23;;;6.90;;
24635;SDS011;12772;49.794;10.024;2022-11-02T19:31:24;7.63;;;5.50;;
24635;SDS011;12772;49.794;10.024;2022-11-02T19:35:27;7.82;;;5.00;;
24635;SDS011;12772;49.794;10.024;2022-11-02T19:39:29;8.40;;;5.35;;
24635;SDS011;12772;49.794;10.024;2022-11-02T19:43:31;7.57;;;5.03;;
24635;SDS011;12772;49.794;10.024;2022-11-02T19:47:33;8.52;;;4.18;;
24635;SDS011;12772;49.794;10.024;2022-11-02T19:51:35;8.75;;;4.32;;
24635;SDS011;12772;49.794;10.024;2022-11-02T19:55:37;7.13;;;4.40;;
24635;SDS011;12772;49.794;10.024;2022-11-02T19:59:39;7.57;;;5.55;;
24635;SDS011;12772;49.794;10.024;2022-11-02T20:03:41;9.63;;;6.22;;
24635;SDS011;12772;49.794;10.024;2022-11-02T20:07:44;14.57;;;11.48;;
24635;SDS011;12772;49.794;10.024;2022-11-02T20:11:46;17.17;;;11.45;;
24635;SDS011;12772;49.794;10.024;2022-11-02T20:15:48;9.00;;;7.93;;
24635;SDS011;12772;49.794;10.024;2022-11-02T20:19:50;11.48;;;6.75;;
24635;SDS011;12772;49.794;10.024;2022-11-02T20:23:52;6.55;;;4.93;;
24635;SDS011;12772;49.794;10.024;2022-11-02T20:27:54;8.90;;;4.50;;
24635;SDS011;12772;49.794;10.024;2022-11-02T20:31:56;6.03;;;3.58;;
24635;SDS011;12772;49.794;10.024;2022-11-02T20:35:58;7.50;;;3.63;;
24635;SDS011;12772;49.794;10.024;2022-11-02T20:40:00;6.32;;;4.03;;
24635;SDS011;12772;49.794;10.024;2022-11-02T20:44:03;8.32;;;3.75;;
24635;SDS011;12772;49.794;10.024;2022-11-02T20:48:05;5.78;;;3.53;;
24635;SDS011;12772;49.794;10.024;2022-11-02T20:52:07;10.68;;;3.35;;
24635;SDS011;12772;49.794;10.024;2022-11-02T20:56:09;8.80;;;3.70;;
24635;SDS011;12772;49.794;10.024;2022-11-02T21:00:12;7.40;;;3.30;;
24635;SDS011;12772;49.794;10.024;2022-11-02T21:04:14;7.30;;;3.75;;
24635;SDS011;12772;49.794;10.024;2022-11-02T21:08:17;8.73;;;3.97;;
24635;SDS011;12772;49.794;10.024;2022-11-02T21:12:21;6.47;;;4.00;;
24635;SDS011;12772;49.794;10.024;2022-11-02T21:16:41;5.45;;;3.17;;
24635;SDS011;12772;49.794;10.024;2022-11-02T21:20:43;5.72;;;3.33;;
24635;SDS011;12772;49.794;10.024;2022-11-02T21:24:45;10.35;;;3.55;;
24635;SDS011;12772;49.794;10.024;2022-11-02T21:28:47;7.85;;;3.38;;
24635;SDS011;12772;49.794;10.024;2022-11-02T21:32:49;7.75;;;3.70;;
24635;SDS011;12772;49.794;10.024;2022-11-02T21:36:52;6.93;;;3.55;;
24635;SDS011;12772;49.794;10.024;2022-11-02T21:40:57;6.82;;;3.45;;
24635;SDS011;12772;49.794;10.024;2022-11-02T21:45:01;6.88;;;4.05;;
24635;SDS011;12772;49.794;10.024;2022-11-02T21:49:03;4.63;;;3.40;;
24635;SDS011;12772;49.794;10.024;2022-11-02T21:53:05;4.85;;;2.90;;
24635;SDS011;12772;49.794;10.024;2022-11-02T21:57:07;4.40;;;3.22;;
24635;SDS011;12772;49.794;10.024;2022-11-02T22:05:30;5.70;;;2.78;;
24635;SDS011;12772;49.794;10.024;2022-11-02T22:09:46;5.10;;;2.38;;
24635;SDS011;12772;49.794;10.024;2022-11-02T22:13:48;4.60;;;2.10;;
24635;SDS011;12772;49.794;10.024;2022-11-02T22:17:52;7.40;;;2.97;;
24635;SDS011;12772;49.794;10.024;2022-11-02T22:21:54;5.80;;;2.20;;
24635;SDS011;12772;49.794;10.024;2022-11-02T22:26:00;3.83;;;1.98;;
24635;SDS011;12772;49.794;10.024;2022-11-02T22:30:05;7.40;;;2.67;;
24635;SDS011;12772;49.794;10.024;2022-11-02T22:34:09;7.40;;;2.75;;
24635;SDS011;12772;49.794;10.024;2022-11-02T22:38:12;4.75;;;2.45;;
24635;SDS011;12772;49.794;10.024;2022-11-02T22:42:31;4.97;;;2.55;;
24635;SDS011;12772;49.794;10.024;2022-11-02T22:46:34;6.47;;;2.53;;
24635;SDS011;12772;49.794;10.024;2022-11-02T22:50:38;5.28;;;2.83;;
24635;SDS011;12772;49.794;10.024;2022-11-02T22:54:40;4.35;;;2.67;;
24635;SDS011;12772;49.794;10.024;2022-11-02T22:58:43;4.68;;;2.13;;
24635;SDS011;12772;49.794;10.024;2022-11-02T23:02:47;5.68;;;3.25;;
24635;SDS011;12772;49.794;10.024;2022-11-02T23:06:49;5.07;;;2.70;;
24635;SDS011;12772;49.794;10.024;2022-11-02T23:10:55;5.22;;;3.40;;
24635;SDS011;12772;49.794;10.024;2022-11-02T23:15:15;8.88;;;3.63;;
24635;SDS011;12772;49.794;10.024;2022-11-02T23:19:18;6.00;;;2.95;;
24635;SDS011;12772;49.794;10.024;2022-11-02T23:23:25;3.42;;;2.72;;
24635;SDS011;12772;49.794;10.024;2022-11-02T23:27:57;5.53;;;2.70;;
24635;SDS011;12772;49.794;10.024;2022-11-02T23:32:17;4.18;;;2.58;;
24635;SDS011;12772;49.794;10.024;2022-11-02T23:36:28;9.25;;;3.10;;
24635;SDS011;12772;49.794;10.024;2022-11-02T23:40:31;6.03;;;3.03;;
24635;SDS011;12772;49.794;10.024;2022-11-02T23:44:33;4.40;;;3.00;;
24635;SDS011;12772;49.794;10.024;2022-11-02T23:48:35;5.60;;;2.80;;
24635;SDS011;12772;49.794;10.024;2022-11-02T23:52:37;6.53;;;3.20;;
24635;SDS011;12772;49.794;10.024;2022-11-02T23:56:57;10.60;;;3.70;;
